Time;durP1;ratioP1;P1;durP2;ratioP2;P2;SDS_P1;SDS_P2;PMS_P1;PMS_P2;Temp;Humidity;BMP_temperature;BMP_pressure;BME280_temperature;BME280_humidity;BME280_pressure;Samples;Min_cycle;Max_cycle;Signal;HPM_P1;HPM_P2
2023/09/29 00:02:35;;;;;;;4.93;4.53;;;13.70;99.90;;;14.38;94.06;98231.91;10436409;28;20709;-78
2023/09/29 00:07:38;;;;;;;4.90;4.35;;;13.50;99.90;;;14.30;94.06;98222.91;10438519;28;22093;-78
2023/09/29 00:12:42;;;;;;;5.82;4.45;;;13.50;99.90;;;14.38;95.55;98221.59;10435781;28;20221;-77
2023/09/29 00:17:47;;;;;;;4.45;4.03;;;13.50;99.90;;;14.30;94.95;98217.78;10427439;28;20308;-78
2023/09/29 00:22:52;;;;;;;4.97;4.20;;;13.40;99.90;;;14.30;95.33;98222.91;10431791;28;20252;-79
2023/09/29 00:27:57;;;;;;;5.43;4.43;;;13.50;99.90;;;14.40;96.05;98220.00;10433095;28;20256;-79
2023/09/29 00:33:03;;;;;;;4.38;3.97;;;13.60;99.90;;;14.51;95.71;98215.38;10435182;28;20229;-78
2023/09/29 00:38:06;;;;;;;5.25;4.82;;;13.70;99.90;;;14.45;95.68;98197.09;10433091;28;20284;-79
2023/09/29 00:43:11;;;;;;;5.15;4.65;;;13.70;99.90;;;14.43;95.58;98199.56;10432176;28;20235;-78
2023/09/29 00:48:16;;;;;;;4.60;4.20;;;13.60;99.90;;;14.44;95.73;98213.31;10434660;28;20320;-79
2023/09/29 00:53:20;;;;;;;4.97;4.47;;;13.60;99.90;;;14.44;94.40;98205.59;10439508;28;20296;-79
2023/09/29 00:58:23;;;;;;;5.38;4.78;;;13.50;99.90;;;14.32;94.79;98205.00;10438986;28;20237;-78
2023/09/29 01:03:28;;;;;;;5.40;4.75;;;13.40;99.90;;;14.02;96.20;98194.13;10438441;28;20292;-80
2023/09/29 01:08:31;;;;;;;4.90;4.40;;;13.20;99.90;;;14.00;96.37;98191.47;10430265;28;20664;-77
2023/09/29 01:13:35;;;;;;;5.60;5.10;;;13.10;99.90;;;13.96;97.81;98195.59;10439603;28;20729;-78
2023/09/29 01:18:40;;;;;;;6.03;5.43;;;13.20;99.90;;;14.06;97.53;98190.91;10435935;28;20312;-78
2023/09/29 01:23:44;;;;;;;5.97;5.47;;;13.30;99.90;;;14.10;97.24;98183.41;10440638;28;20221;-80
2023/09/29 01:28:50;;;;;;;5.75;5.10;;;13.20;99.90;;;14.08;96.27;98189.25;10435949;28;20718;-79
2023/09/29 01:33:54;;;;;;;7.22;6.07;;;13.30;99.90;;;14.04;97.32;98193.38;10443810;28;20228;-78
2023/09/29 01:38:59;;;;;;;8.20;5.85;;;13.30;99.90;;;13.96;98.61;98194.69;10440991;28;20225;-78
2023/09/29 01:44:02;;;;;;;6.13;5.22;;;13.30;99.90;;;13.94;98.88;98194.63;10470000;28;20229;-79
2023/09/29 01:49:06;;;;;;;6.07;5.30;;;13.20;99.90;;;13.97;97.79;98207.63;10465551;28;20252;-79
2023/09/29 01:54:11;;;;;;;5.18;4.68;;;13.10;99.90;;;13.95;95.70;98195.50;10462867;28;20264;-76
2023/09/29 01:59:14;;;;;;;5.35;4.88;;;13.00;99.90;;;13.83;96.38;98187.22;10439794;28;20610;-78
2023/09/29 02:04:18;;;;;;;5.07;4.47;;;12.90;99.90;;;13.73;96.50;98197.03;10435892;28;20742;-78
2023/09/29 02:09:23;;;;;;;7.00;5.75;;;12.80;99.90;;;13.73;97.70;98190.97;10447722;28;20655;-79
2023/09/29 02:14:26;;;;;;;7.93;5.55;;;12.90;99.90;;;13.68;97.51;98197.59;10442504;28;20252;-78
2023/09/29 02:19:29;;;;;;;5.65;5.05;;;12.80;99.90;;;13.66;97.64;98199.22;10439018;28;20324;-78
2023/09/29 02:24:34;;;;;;;5.55;5.10;;;12.80;99.90;;;13.56;97.16;98197.84;10435002;28;20228;-79
2023/09/29 02:29:38;;;;;;;5.53;5.03;;;12.70;99.90;;;13.56;97.61;98196.97;10440271;28;20236;-78
2023/09/29 02:34:43;;;;;;;5.93;5.30;;;12.70;99.90;;;13.53;97.15;98197.69;10434387;28;20311;-79
2023/09/29 02:39:47;;;;;;;5.55;5.05;;;12.70;99.90;;;13.46;98.20;98198.19;10432120;28;20237;-78
2023/09/29 02:44:50;;;;;;;5.72;5.32;;;12.60;99.90;;;13.46;97.77;98193.06;10430693;28;20217;-78
2023/09/29 02:49:54;;;;;;;6.18;5.30;;;12.60;99.90;;;13.49;97.38;98195.78;10435732;28;20241;-78
2023/09/29 02:54:59;;;;;;;5.88;5.43;;;12.50;99.90;;;13.42;98.00;98201.38;10439750;28;20213;-78
2023/09/29 03:00:06;;;;;;;5.30;4.93;;;12.40;99.90;;;13.29;98.12;98185.38;10431637;28;20264;-79
2023/09/29 03:05:10;;;;;;;6.25;5.68;;;12.40;99.90;;;13.23;97.46;98186.72;10434643;28;20885;-79
2023/09/29 03:10:16;;;;;;;6.28;5.47;;;12.40;99.90;;;13.19;97.41;98189.91;10435832;28;20471;-78
2023/09/29 03:15:21;;;;;;;7.13;5.35;;;12.30;99.90;;;13.07;98.73;98197.84;10430015;28;20230;-78
2023/09/29 03:20:25;;;;;;;6.30;5.28;;;12.20;99.90;;;13.10;97.70;98197.13;10433545;28;20230;-78
2023/09/29 03:25:30;;;;;;;5.88;5.43;;;12.20;99.90;;;13.05;98.47;98195.22;10429340;28;20251;-78
2023/09/29 03:30:33;;;;;;;5.57;5.18;;;12.20;99.90;;;12.93;98.13;98186.84;10433618;28;20308;-77
2023/09/29 03:35:36;;;;;;;5.65;5.18;;;12.00;99.90;;;12.89;98.30;98194.31;10434184;28;20253;-79
2023/09/29 03:40:44;;;;;;;5.85;5.45;;;12.00;99.90;;;12.75;98.64;98179.06;10433237;28;20227;-79
2023/09/29 03:45:47;;;;;;;5.78;5.30;;;11.90;99.90;;;12.73;99.46;98179.78;10429608;28;20248;-78
2023/09/29 03:50:50;;;;;;;6.45;5.80;;;11.90;99.90;;;12.76;100.00;98177.38;10428280;28;20229;-79
2023/09/29 03:55:55;;;;;;;5.47;4.97;;;12.00;99.90;;;12.82;99.00;98181.16;10437202;28;20233;-79
2023/09/29 04:00:58;;;;;;;5.55;4.90;;;12.00;99.90;;;12.83;98.19;98179.47;10427366;28;20321;-77
2023/09/29 04:06:01;;;;;;;5.63;5.13;;;12.00;99.90;;;12.82;98.24;98188.88;10422310;28;20233;-77
2023/09/29 04:11:07;;;;;;;5.10;4.70;;;12.00;99.90;;;12.84;99.84;98191.50;10432659;28;20319;-78
2023/09/29 04:16:10;;;;;;;6.40;5.80;;;12.00;99.90;;;12.77;100.00;98182.59;10432003;28;20233;-78
2023/09/29 04:21:15;;;;;;;7.28;5.93;;;12.10;99.90;;;12.79;100.00;98177.53;10426091;28;20525;-78
2023/09/29 04:26:23;;;;;;;6.07;5.47;;;12.00;99.90;;;12.73;100.00;98178.09;10431426;28;20224;-78
2023/09/29 04:31:27;;;;;;;5.90;5.40;;;12.00;99.90;;;12.61;100.00;98178.31;10447630;28;20967;-79
2023/09/29 04:36:30;;;;;;;6.50;6.00;;;11.90;99.90;;;12.53;100.00;98182.16;10456698;28;20243;-78
2023/09/29 04:41:34;;;;;;;6.70;6.03;;;11.90;99.90;;;12.53;100.00;98188.94;10454251;28;20321;-79
2023/09/29 04:46:42;;;;;;;6.55;6.00;;;11.90;99.90;;;12.71;100.00;98186.53;10463813;28;20233;-79
2023/09/29 04:51:45;;;;;;;6.53;5.93;;;12.00;99.90;;;12.75;100.00;98183.31;10452848;28;20244;-78
2023/09/29 04:56:50;;;;;;;6.57;5.97;;;12.00;99.90;;;12.67;100.00;98179.44;10453888;28;20268;-77
2023/09/29 05:01:53;;;;;;;7.30;6.60;;;12.00;99.90;;;12.61;100.00;98188.56;10438874;28;20226;-79
2023/09/29 05:06:56;;;;;;;7.32;6.63;;;11.90;99.90;;;12.73;100.00;98215.69;10443555;28;20231;-79
2023/09/29 05:12:01;;;;;;;6.38;5.80;;;12.10;99.90;;;12.87;100.00;98226.69;10435262;28;20248;-79
2023/09/29 05:17:04;;;;;;;6.22;5.70;;;12.00;99.90;;;12.90;98.34;98232.88;10422990;28;20222;-79
2023/09/29 05:22:07;;;;;;;6.13;5.55;;;12.00;99.90;;;12.81;98.89;98232.38;10419086;28;20259;-79
2023/09/29 05:27:12;;;;;;;6.28;5.68;;;11.90;99.90;;;12.66;99.30;98239.25;10415321;28;20233;-79
2023/09/29 05:32:15;;;;;;;6.43;5.95;;;11.80;99.90;;;12.55;99.22;98231.84;10424529;28;20221;-78
2023/09/29 05:37:18;;;;;;;7.45;5.85;;;11.70;99.90;;;12.53;99.78;98230.88;10426635;28;20220;-78
2023/09/29 05:42:23;;;;;;;6.13;5.55;;;11.70;99.90;;;12.49;100.00;98228.94;10419107;28;20750;-78
2023/09/29 05:47:46;;;;;;;6.15;5.65;;;11.70;99.90;;;12.58;100.00;98244.81;10421744;28;20296;-78
2023/09/29 05:52:50;;;;;;;6.88;6.03;;;11.80;99.90;;;12.67;100.00;98248.69;10417379;28;20240;-78
2023/09/29 05:57:58;;;;;;;6.60;5.93;;;11.90;99.90;;;12.76;99.64;98247.53;10416392;28;20226;-78
2023/09/29 06:03:01;;;;;;;6.43;5.32;;;12.00;99.90;;;12.97;99.63;98252.94;10425165;28;20329;-78
2023/09/29 06:08:06;;;;;;;5.57;4.90;;;12.20;99.90;;;13.40;98.62;98262.94;10419510;28;20884;-79
2023/09/29 06:13:10;;;;;;;30.92;28.65;;;12.60;99.90;;;14.17;93.95;98272.00;10420754;28;20279;-82
2023/09/29 06:18:14;;;;;;;9.35;8.10;;;13.30;99.90;;;14.53;90.96;98266.91;10432272;28;20228;-79
2023/09/29 06:23:17;;;;;;;6.60;6.00;;;13.60;99.90;;;14.63;89.39;98269.13;10465195;28;20241;-80
2023/09/29 06:28:22;;;;;;;6.55;5.97;;;13.60;99.90;;;14.36;89.79;98274.66;10463974;28;20279;-79
2023/09/29 06:33:26;;;;;;;6.20;5.65;;;13.40;99.90;;;14.22;91.56;98277.34;10459656;28;20264;-79
2023/09/29 06:38:29;;;;;;;6.32;5.78;;;13.30;99.90;;;14.38;92.09;98278.19;10447248;28;20221;-79
2023/09/29 06:43:34;;;;;;;8.60;5.93;;;13.40;99.90;;;14.84;89.63;98280.41;10441853;28;20230;-79
2023/09/29 06:48:37;;;;;;;6.30;5.43;;;13.80;99.90;;;15.05;88.47;98275.41;10443835;28;20225;-80
2023/09/29 06:53:41;;;;;;;5.90;5.40;;;14.00;99.90;;;15.50;88.90;98280.84;10437922;28;20232;-78
2023/09/29 06:58:46;;;;;;;5.78;5.13;;;14.60;99.90;;;16.42;86.00;98278.75;10443299;28;20237;-80
2023/09/29 07:03:50;;;;;;;9.77;8.77;;;15.60;99.90;;;17.55;79.65;98284.91;10442287;28;20324;-81
2023/09/29 07:08:53;;;;;;;6.20;5.60;;;16.80;99.90;;;18.41;74.39;98290.50;10434155;28;20295;-78
2023/09/29 07:13:58;;;;;;;6.22;5.60;;;17.40;99.90;;;18.93;71.81;98281.81;10437126;28;20233;-79
2023/09/29 07:19:03;;;;;;;7.20;6.57;;;18.00;99.90;;;18.84;69.23;98276.38;10433687;28;20284;-77
2023/09/29 07:24:07;;;;;;;6.30;5.70;;;17.80;99.90;;;18.40;72.31;98281.84;10450060;28;20242;-77
2023/09/29 07:29:12;;;;;;;6.03;5.47;;;17.20;99.90;;;18.11;75.90;98279.97;10436044;28;20233;-79
2023/09/29 07:34:16;;;;;;;7.80;4.90;;;17.10;99.90;;;18.74;74.02;98275.19;10434709;28;20234;-78
2023/09/29 07:39:20;;;;;;;5.78;5.07;;;17.70;99.90;;;18.84;72.56;98282.41;10432617;28;20253;-79
2023/09/29 07:44:25;;;;;;;6.13;5.50;;;17.80;99.90;;;18.80;73.05;98279.66;10434485;28;20248;-78
2023/09/29 07:49:28;;;;;;;5.97;5.38;;;17.80;99.90;;;18.64;73.70;98274.00;10431115;28;20360;-78
2023/09/29 07:54:31;;;;;;;7.25;5.00;;;17.70;99.90;;;18.66;74.77;98276.63;10434461;28;20237;-79
2023/09/29 07:59:36;;;;;;;5.82;5.22;;;17.70;99.90;;;18.96;74.72;98268.09;10416112;28;20237;-77
2023/09/29 08:04:41;;;;;;;5.38;4.82;;;18.10;99.90;;;19.60;73.59;98264.75;10421252;28;20628;-79
2023/09/29 08:09:45;;;;;;;5.25;4.85;;;18.80;99.90;;;20.10;70.39;98262.69;10421530;28;20240;-77
2023/09/29 08:14:50;;;;;;;4.95;4.35;;;19.30;99.90;;;20.34;68.41;98266.75;10423327;28;20237;-78
2023/09/29 08:19:53;;;;;;;6.15;5.10;;;19.50;99.90;;;20.70;69.39;98259.91;10422138;28;20823;-79
2023/09/29 08:24:56;;;;;;;6.65;4.35;;;20.00;99.90;;;;;;10425068;28;20226;-79
2023/09/29 08:30:01;;;;;;;7.03;5.85;;;20.30;99.90;;;21.35;65.17;98274.34;10421475;28;20312;-83
2023/09/29 08:35:06;;;;;;;5.68;4.57;;;20.50;99.90;;;21.59;65.17;98274.84;10426203;28;20229;-78
2023/09/29 08:40:10;;;;;;;5.00;4.55;;;20.60;99.90;;;21.85;63.19;98278.81;10422418;28;20324;-79
2023/09/29 08:45:17;;;;;;;6.60;4.95;;;20.80;99.90;;;21.92;62.54;98278.97;10430860;28;20229;-80
2023/09/29 08:50:22;;;;;;;6.20;5.00;;;20.80;99.90;;;22.08;63.04;98276.66;10419884;28;20385;-78
2023/09/29 08:55:28;;;;;;;5.35;4.88;;;21.00;99.90;;;22.16;62.16;98269.84;10423158;28;20614;-81
2023/09/29 09:00:34;;;;;;;5.80;5.00;;;21.10;99.90;;;22.45;60.26;98260.81;10424658;28;20240;-82
2023/09/29 09:05:38;;;;;;;4.70;4.30;;;21.50;99.90;;;22.99;57.57;98261.69;10432567;28;20230;-80
2023/09/29 09:10:41;;;;;;;6.28;4.38;;;22.30;99.90;;;23.19;56.69;98264.56;10425157;28;20870;-80
2023/09/29 09:15:56;;;;;;;6.00;4.10;;;22.50;99.90;;;23.65;54.54;98259.94;10435833;28;20230;-80
2023/09/29 09:21:00;;;;;;;5.32;4.13;;;23.00;99.90;;;24.06;53.13;98254.28;10440355;28;20228;-81
2023/09/29 09:26:13;;;;;;;4.18;3.75;;;23.50;98.90;;;24.27;51.72;98257.13;10437800;28;20574;-81
2023/09/29 09:31:18;;;;;;;5.38;4.18;;;23.70;97.70;;;24.49;50.93;98245.16;10426240;28;20292;-81
2023/09/29 09:36:21;;;;;;;4.35;3.92;;;23.90;96.90;;;24.56;51.26;98238.22;10429023;28;20228;-80
2023/09/29 09:41:25;;;;;;;5.10;4.00;;;24.00;97.20;;;24.84;50.79;98225.31;10424288;28;20229;-79
2023/09/29 09:46:33;;;;;;;5.03;4.05;;;24.30;96.40;;;25.19;50.34;98235.16;10429953;28;20227;-78
2023/09/29 09:51:37;;;;;;;5.35;4.10;;;24.70;95.90;;;25.31;49.65;98237.84;10422104;28;20252;-80
2023/09/29 09:56:47;;;;;;;4.03;3.63;;;24.90;95.40;;;25.73;49.37;98231.00;10422244;28;20225;-80
2023/09/29 10:01:52;;;;;;;4.32;3.80;;;25.20;95.60;;;25.82;48.60;98224.06;10437909;28;20237;-79
2023/09/29 10:06:59;;;;;;;4.10;3.70;;;25.40;94.50;;;26.09;48.86;98226.72;10432167;28;20274;-79
2023/09/29 10:12:02;;;;;;;3.97;3.63;;;25.60;94.50;;;26.49;47.46;98225.84;10425838;28;20253;-80
2023/09/29 10:17:07;;;;;;;5.50;3.53;;;26.00;93.50;;;26.69;45.73;98214.50;10436980;28;20228;-80
2023/09/29 10:22:10;;;;;;;4.68;3.80;;;26.10;92.60;;;26.91;45.47;98213.59;10421644;28;20230;-77
2023/09/29 10:27:14;;;;;;;4.63;3.33;;;26.50;92.20;;;27.20;43.16;98211.81;10418094;28;20232;-78
2023/09/29 10:32:20;;;;;;;3.38;3.08;;;26.60;90.60;;;27.42;42.15;98209.97;10423488;28;20232;-76
2023/09/29 10:37:26;;;;;;;3.55;3.25;;;26.90;89.70;;;27.50;41.70;98208.16;10424403;28;20233;-79
2023/09/29 10:42:37;;;;;;;4.10;3.47;;;26.90;88.40;;;27.56;41.63;98209.03;10421669;28;20232;-79
2023/09/29 10:47:42;;;;;;;4.15;3.75;;;26.90;88.30;;;27.84;41.07;98199.25;10423523;28;20221;-78
2023/09/29 10:52:46;;;;;;;3.90;3.60;;;27.30;87.40;;;27.95;40.07;98187.78;10427396;28;20248;-77
2023/09/29 10:57:51;;;;;;;3.40;3.10;;;27.40;85.90;;;28.15;39.86;98191.13;10432363;28;20532;-81
2023/09/29 11:02:55;;;;;;;6.50;4.25;;;27.60;85.30;;;28.15;40.29;98191.13;10429824;28;20260;-81
2023/09/29 11:07:59;;;;;;;4.03;3.50;;;27.50;85.60;;;28.19;40.29;98187.59;10441513;28;20220;-80
2023/09/29 11:13:02;;;;;;;3.65;3.35;;;27.40;86.10;;;28.45;39.26;98186.56;10440414;28;20232;-80
2023/09/29 11:18:07;;;;;;;5.60;4.18;;;27.50;84.60;;;28.51;38.92;98173.34;10436041;28;20236;-80
2023/09/29 11:23:12;;;;;;;4.57;3.80;;;27.50;85.20;;;28.62;39.01;98167.97;10444697;28;20232;-80
2023/09/29 11:28:15;;;;;;;3.75;3.45;;;27.60;84.50;;;28.50;38.25;98161.94;10446980;28;20248;-82
2023/09/29 11:33:21;;;;;;;2.95;2.70;;;27.60;83.60;;;28.55;39.12;98161.00;10452854;28;20314;-81
2023/09/29 11:38:24;;;;;;;3.38;2.83;;;27.70;85.00;;;28.55;38.48;98158.38;10442332;28;20248;-83
2023/09/29 11:43:27;;;;;;;3.25;2.95;;;27.60;83.20;;;28.23;40.04;98152.50;10446764;28;20316;-83
2023/09/29 11:48:33;;;;;;;3.78;2.95;;;27.40;85.30;;;28.28;39.67;98147.22;10441117;28;20705;-81
2023/09/29 11:53:38;;;;;;;4.30;3.35;;;27.40;85.20;;;28.13;40.58;98129.81;10448871;28;20233;-83
2023/09/29 11:58:41;;;;;;;4.43;3.42;;;27.30;85.30;;;28.25;39.93;98129.72;10453429;28;20246;-81
2023/09/29 12:03:46;;;;;;;3.60;3.30;;;27.30;85.50;;;28.48;40.08;98123.38;10438670;28;20245;-81
2023/09/29 12:08:50;;;;;;;5.35;3.50;;;27.60;86.00;;;28.38;41.15;98119.94;10431195;28;20225;-82
2023/09/29 12:13:53;;;;;;;3.65;3.35;;;27.60;86.80;;;28.48;41.13;98118.13;10432195;28;20224;-84
2023/09/29 12:18:58;;;;;;;5.88;3.42;;;27.70;87.00;;;28.55;41.00;98105.78;10432847;28;20234;-81
2023/09/29 12:24:01;;;;;;;5.10;3.47;;;27.80;86.80;;;28.73;42.15;98102.91;10421573;28;20228;-81
2023/09/29 12:29:05;;;;;;;4.53;3.58;;;28.00;87.60;;;28.75;41.77;98109.91;10430006;28;20308;-80
2023/09/29 12:34:09;;;;;;;4.82;3.70;;;28.10;88.00;;;28.74;42.05;98108.19;10441112;28;20229;-79
2023/09/29 12:39:13;;;;;;;3.92;3.50;;;28.00;88.40;;;28.68;43.41;98100.38;10447632;28;20225;-80
2023/09/29 12:44:16;;;;;;;4.47;3.55;;;27.90;89.80;;;29.01;42.30;98095.56;10448539;28;20247;-82
2023/09/29 12:49:23;;;;;;;5.35;3.80;;;28.30;89.10;;;28.98;41.13;98090.34;10445844;28;20225;-83
2023/09/29 12:54:26;;;;;;;3.67;3.30;;;28.30;87.20;;;28.88;42.60;98083.47;10453011;28;20225;-79
2023/09/29 12:59:29;;;;;;;4.80;3.80;;;28.10;88.40;;;28.97;42.07;98083.34;10470420;28;20246;-80
2023/09/29 13:04:36;;;;;;;6.93;4.38;;;28.30;88.40;;;28.94;41.83;98091.28;10464564;28;20711;-80
2023/09/29 13:09:40;;;;;;;4.47;4.03;;;28.30;88.10;;;28.81;42.93;98090.53;10441739;28;20628;-80
2023/09/29 13:14:43;;;;;;;3.92;3.50;;;28.10;88.80;;;28.79;42.65;98083.56;10433975;28;20221;-79
2023/09/29 13:19:47;;;;;;;5.75;4.00;;;28.00;88.50;;;28.77;42.40;98078.34;10432908;28;20240;-80
2023/09/29 13:24:50;;;;;;;4.38;3.47;;;28.10;88.20;;;28.55;42.92;98076.84;10436328;28;20224;-80
2023/09/29 13:29:54;;;;;;;3.90;3.42;;;27.80;89.40;;;28.41;42.61;98077.81;10447256;28;20319;-81
2023/09/29 13:34:58;;;;;;;4.15;3.75;;;27.50;89.10;;;28.39;43.10;98086.63;10450641;28;20263;-80
2023/09/29 13:40:03;;;;;;;3.72;3.40;;;27.60;88.70;;;28.50;41.26;98088.28;10436348;28;20662;-80
2023/09/29 13:45:08;;;;;;;4.03;3.63;;;27.90;85.90;;;28.79;40.69;98073.03;10446883;28;20231;-80
2023/09/29 13:50:16;;;;;;;4.97;3.55;;;28.20;85.50;;;28.85;41.03;98072.97;10450749;28;20229;-80
2023/09/29 13:55:20;;;;;;;3.83;3.33;;;28.20;85.90;;;29.04;40.40;98074.50;10440916;28;20236;-81
2023/09/29 14:00:23;;;;;;;4.60;3.08;;;28.50;84.30;;;29.01;39.56;98068.38;10446659;28;20238;-80
2023/09/29 14:05:28;;;;;;;3.65;3.30;;;28.30;83.20;;;28.85;41.01;98062.47;10443096;28;20274;-80
2023/09/29 14:10:32;;;;;;;5.20;3.45;;;28.10;85.30;;;29.00;38.51;98062.25;10435254;28;20232;-79
2023/09/29 14:15:36;;;;;;;4.15;2.78;;;28.40;82.00;;;28.89;38.82;98064.16;10437183;28;20225;-80
2023/09/29 14:20:41;;;;;;;3.17;2.88;;;28.30;82.00;;;28.75;39.83;98075.69;10432442;28;20237;-78
2023/09/29 14:25:44;;;;;;;3.05;2.75;;;27.90;83.70;;;28.53;41.10;98095.28;10432808;28;20228;-79
2023/09/29 14:30:47;;;;;;;3.55;3.28;;;27.80;86.20;;;28.28;44.44;98103.38;10430223;28;20237;-79
2023/09/29 14:35:51;;;;;;;4.35;3.90;;;27.50;90.30;;;27.87;46.08;98116.00;10436609;28;20441;-79
2023/09/29 14:40:55;;;;;;;4.03;3.63;;;27.00;91.40;;;27.70;46.41;98122.25;10416146;28;20239;-80
2023/09/29 14:46:04;;;;;;;4.72;3.50;;;26.80;91.90;;;27.54;45.49;98137.22;10420856;28;20224;-79
2023/09/29 14:51:10;;;;;;;4.22;3.83;;;26.60;91.10;;;27.34;45.70;98128.59;10421503;28;20711;-80
2023/09/29 14:56:14;;;;;;;4.18;3.45;;;26.40;91.30;;;27.04;47.11;98133.09;10426820;28;20256;-79
2023/09/29 15:01:18;;;;;;;4.15;3.60;;;26.20;91.80;;;27.12;47.33;98133.03;10418705;28;20228;-79
2023/09/29 15:06:22;;;;;;;4.68;3.80;;;26.20;92.30;;;27.21;47.63;98133.03;10427167;28;20229;-79
2023/09/29 15:11:26;;;;;;;9.48;4.30;;;26.20;92.60;;;27.13;47.98;98142.69;10429361;28;20235;-78
2023/09/29 15:16:29;;;;;;;6.55;4.07;;;26.20;92.70;;;27.11;47.16;98144.44;10430645;28;20610;-77
2023/09/29 15:21:35;;;;;;;9.38;5.03;;;26.10;92.40;;;27.04;47.85;98150.56;10418836;28;20757;-77
2023/09/29 15:26:40;;;;;;;7.97;4.30;;;26.10;92.80;;;26.89;48.19;98156.75;10423309;28;20228;-78
2023/09/29 15:31:44;;;;;;;4.97;3.88;;;26.00;93.00;;;26.92;48.84;98173.34;10419409;28;20730;-77
2023/09/29 15:36:48;;;;;;;4.22;3.83;;;26.00;93.60;;;26.87;49.41;98187.34;10418136;28;20233;-79
2023/09/29 15:41:52;;;;;;;5.15;3.80;;;25.90;93.90;;;26.92;50.60;98199.59;10423771;28;20236;-81
2023/09/29 15:46:55;;;;;;;6.03;4.10;;;25.90;95.10;;;26.64;52.65;98217.16;10439959;28;20229;-79
2023/09/29 15:52:01;;;;;;;4.50;3.90;;;25.60;96.60;;;26.23;54.57;98230.22;10425161;28;20653;-80
2023/09/29 15:57:13;;;;;;;6.65;3.83;;;25.30;97.70;;;25.69;56.24;98232.72;10439827;28;20720;-80
2023/09/29 16:02:19;;;;;;;4.35;3.95;;;24.80;98.90;;;25.37;57.53;98240.47;10463930;28;20723;-83
2023/09/29 16:12:53;;;;;;;5.80;4.28;;;24.20;99.90;;;24.78;59.35;98264.50;10434403;28;20286;-80
2023/09/29 16:17:57;;;;;;;6.90;4.13;;;24.00;99.90;;;24.58;60.07;98273.09;10431252;28;20852;-78
2023/09/29 16:23:01;;;;;;;7.03;4.97;;;23.70;99.90;;;24.46;59.54;98286.94;10449567;28;20296;-81
2023/09/29 16:28:07;;;;;;;9.35;5.70;;;23.60;99.90;;;24.22;59.63;98298.00;10468078;28;20231;-80
2023/09/29 16:33:12;;;;;;;10.90;7.28;;;23.30;99.90;;;24.09;57.93;98305.69;10447936;28;20260;-82
2023/09/29 16:38:17;;;;;;;11.18;7.30;;;23.30;99.90;;;23.67;59.20;98300.00;10468833;28;20243;-81
2023/09/29 16:43:20;;;;;;;10.70;7.53;;;22.90;99.90;;;23.46;59.75;98305.78;10480480;28;20224;-83
2023/09/29 16:48:23;;;;;;;14.27;8.27;;;22.70;99.90;;;23.56;59.68;98320.72;10489775;28;20220;-79
2023/09/29 16:53:43;;;;;;;14.98;8.77;;;22.60;99.90;;;23.50;59.87;98323.25;10495056;28;20232;-78
2023/09/29 16:58:50;;;;;;;15.80;8.75;;;22.60;99.90;;;23.45;60.10;98331.88;10460395;28;20731;-78
2023/09/29 17:04:17;;;;;;;14.10;9.93;;;22.50;99.90;;;23.25;60.77;98358.56;10459334;28;20625;-80
2023/09/29 17:09:21;;;;;;;14.38;9.57;;;22.40;99.90;;;22.86;62.87;98364.91;10446200;28;20249;-80
2023/09/29 17:15:29;;;;;;;16.38;10.10;;;22.10;99.90;;;22.85;63.79;98389.19;10444425;28;20237;-79
2023/09/29 17:39:59;;;;;;;25.30;15.60;;;21.70;99.90;;;22.40;60.98;98410.97;10470303;22;20222;-69
2023/09/29 17:45:02;;;;;;;28.65;15.93;;;21.50;99.90;;;22.29;61.63;98422.94;10317864;28;20723;-65
2023/09/29 17:50:08;;;;;;;29.85;17.27;;;21.40;99.90;;;22.45;59.07;98443.19;10313689;28;20275;-70
2023/09/29 17:55:12;;;;;;;28.60;16.75;;;21.50;99.90;;;22.30;59.45;98455.06;10312718;28;20235;-64
2023/09/29 18:00:16;;;;;;;28.40;16.95;;;21.40;99.90;;;22.31;59.14;98456.81;10318520;28;20227;-64
2023/09/29 18:05:20;;;;;;;29.75;17.85;;;21.40;99.90;;;22.18;59.46;98477.41;10317368;28;20231;-65
2023/09/29 18:10:26;;;;;;;29.55;16.58;;;21.30;99.90;;;22.18;58.95;98486.94;10318166;28;20790;-65
2023/09/29 18:15:29;;;;;;;31.27;17.52;;;21.20;99.90;;;21.96;59.73;98481.22;10315406;28;20234;-67
2023/09/29 18:20:32;;;;;;;27.98;16.40;;;21.00;99.90;;;21.97;59.20;98477.78;10329484;28;20321;-66
2023/09/29 18:25:37;;;;;;;30.25;16.92;;;21.00;99.90;;;21.64;60.27;98483.13;10334296;28;20288;-66
2023/09/29 18:30:40;;;;;;;29.60;16.08;;;20.80;99.90;;;21.48;60.97;98471.47;10328014;28;20219;-66
2023/09/29 18:35:44;;;;;;;28.88;16.75;;;20.60;99.90;;;21.34;61.18;98470.22;10329421;28;20285;-66
2023/09/29 18:40:48;;;;;;;26.40;15.20;;;20.50;99.90;;;21.28;61.97;98483.06;10329686;28;20638;-65
2023/09/29 18:45:59;;;;;;;26.88;15.88;;;20.40;99.90;;;21.10;63.15;98484.38;10324343;28;20227;-66
2023/09/29 18:51:05;;;;;;;29.35;16.17;;;20.20;99.90;;;20.98;64.11;98488.38;10319768;28;20688;-67
2023/09/29 18:56:10;;;;;;;25.30;15.23;;;20.10;99.90;;;20.84;64.61;98485.44;10319372;28;20227;-65
2023/09/29 19:01:13;;;;;;;30.45;16.20;;;19.90;99.90;;;20.74;65.22;98491.19;10324288;28;20234;-65
2023/09/29 19:06:17;;;;;;;28.77;16.20;;;19.80;99.90;;;20.56;66.48;98492.47;10323573;28;20241;-66
2023/09/29 19:11:24;;;;;;;27.80;16.38;;;19.60;99.90;;;20.32;67.17;98497.81;10323774;28;20265;-65
2023/09/29 19:16:28;;;;;;;27.08;15.88;;;19.40;99.90;;;20.21;67.87;98502.69;10329322;28;20242;-67
2023/09/29 19:21:31;;;;;;;29.10;16.15;;;19.20;99.90;;;20.08;68.26;98510.94;10320201;28;20223;-68
2023/09/29 19:26:36;;;;;;;27.10;14.90;;;19.20;99.90;;;19.92;68.79;98513.94;10313929;28;20231;-67
2023/09/29 19:31:39;;;;;;;24.65;14.35;;;19.00;99.90;;;19.80;69.15;98520.50;10313729;28;20241;-66
2023/09/29 19:36:42;;;;;;;26.48;13.50;;;18.90;99.90;;;19.70;69.56;98526.22;10312726;28;20227;-67
2023/09/29 19:41:46;;;;;;;25.40;13.65;;;18.80;99.90;;;19.66;70.10;98550.31;10317185;28;20236;-66
2023/09/29 19:46:49;;;;;;;25.95;14.35;;;18.80;99.90;;;19.61;70.57;98553.56;10322175;28;20263;-66
2023/09/29 19:51:53;;;;;;;21.77;12.82;;;18.70;99.90;;;19.51;70.65;98560.13;10324708;28;20241;-66
2023/09/29 19:56:57;;;;;;;23.48;12.57;;;18.60;99.90;;;19.48;70.68;98558.31;10326334;28;20227;-66
2023/09/29 20:02:02;;;;;;;21.15;11.45;;;18.60;99.90;;;19.45;71.39;98554.75;10328270;28;20766;-66
2023/09/29 20:07:06;;;;;;;19.67;10.32;;;18.60;99.90;;;19.29;72.00;98567.22;10331262;28;20226;-68
2023/09/29 20:12:11;;;;;;;19.88;10.15;;;18.50;99.90;;;19.27;72.59;98583.53;10336993;28;20753;-68
2023/09/29 20:17:17;;;;;;;20.52;11.02;;;18.40;99.90;;;19.23;72.80;98586.84;10329823;28;20246;-68
2023/09/29 20:22:21;;;;;;;19.20;9.15;;;18.40;99.90;;;19.19;73.94;98596.22;10333385;28;20234;-67
2023/09/29 20:27:25;;;;;;;18.38;10.10;;;18.30;99.90;;;19.09;73.99;98595.03;10328644;28;20234;-67
2023/09/29 20:32:28;;;;;;;18.73;10.18;;;18.20;99.90;;;18.97;75.20;98604.06;10338679;28;20313;-65
2023/09/29 20:37:31;;;;;;;19.65;10.32;;;18.00;99.90;;;18.80;75.62;98593.09;10325973;28;20239;-67
2023/09/29 20:42:37;;;;;;;18.70;11.10;;;17.90;99.90;;;18.71;76.28;98585.81;10331882;28;20219;-67
2023/09/29 20:47:41;;;;;;;18.88;10.45;;;17.80;99.90;;;18.55;76.93;98602.53;10327875;28;20312;-67
2023/09/29 20:52:45;;;;;;;23.98;12.07;;;17.70;99.90;;;18.47;77.97;98614.28;10332476;28;20230;-67
2023/09/29 20:57:49;;;;;;;21.10;11.80;;;17.60;99.90;;;18.34;78.97;98604.28;10336215;28;20701;-68
2023/09/29 21:02:52;;;;;;;20.42;10.77;;;17.40;99.90;;;18.19;79.76;98620.97;10333812;28;20226;-67
2023/09/29 21:07:56;;;;;;;18.75;10.27;;;17.30;99.90;;;18.18;79.61;98613.19;10328294;28;20234;-67
2023/09/29 21:13:00;;;;;;;18.38;10.30;;;17.20;99.90;;;18.02;81.11;98617.72;10335871;28;20241;-67
2023/09/29 21:18:04;;;;;;;20.10;10.45;;;17.10;99.90;;;17.99;81.61;98622.78;10332836;28;20722;-67
2023/09/29 21:23:07;;;;;;;19.13;10.55;;;17.10;99.90;;;17.94;82.32;98621.75;10332728;28;20269;-68
2023/09/29 21:28:12;;;;;;;17.98;9.85;;;17.00;99.90;;;17.75;82.67;98617.47;10335442;28;20575;-68